Grover Beach, California
Current Conditions -  °F | °C
As of 9:56 AM on Tuesday 27 Jan 2015 (Local Time) from KSBP Reporting Station
Overcast Overcast  
Wind Chill: 57°   Ceiling: 8000
Heat Index: 57°   Visibility: 10mi
Dew Point: 54°   Wind: 0mph
Humidity: 89%   Direction: NA
Pressure: 30.21"   Gusts: NA
Location:  35.12°N, 120.62°W
Report Text: KSBP 271756Z 00000KT 10SM OVC080 14/12 A3021 RMK AO2 SLP230 T01390122 10139 20117 51013
Loading
Personal Weather Stations






























Interactive Weather Map New forecast layout! Learn more

10-Day Weather Forecast

Advertisements
Track Severe Weather on mobile